createdAt,value
2023-02-15T12:46:38.800Z,1017.32
2023-02-15T12:47:38.691Z,1017.27
2023-02-15T12:48:40.654Z,1017.31
2023-02-15T12:49:38.696Z,1017.28
2023-02-15T12:50:38.633Z,1017.25
2023-02-15T12:51:43.186Z,1017.28
2023-02-15T12:52:38.584Z,1017.27
2023-02-15T12:53:38.578Z,1017.26
2023-02-15T12:54:38.527Z,1017.24
2023-02-15T12:55:45.382Z,1017.21
2023-02-15T12:56:38.485Z,1017.24
2023-02-15T12:57:38.473Z,1017.19
2023-02-15T12:58:46.483Z,1017.20
2023-02-15T12:59:38.443Z,1017.19
2023-02-15T13:00:38.451Z,1017.16
2023-02-15T13:01:38.457Z,1017.20
2023-02-15T13:02:38.389Z,1017.16
2023-02-15T13:03:38.396Z,1017.19
2023-02-15T13:04:38.321Z,1017.18
2023-02-15T13:05:38.313Z,1017.14
2023-02-15T13:06:38.284Z,1017.16
2023-02-15T13:07:38.278Z,1017.18
2023-02-15T13:08:38.247Z,1017.16
2023-02-15T13:09:38.280Z,1017.17
2023-02-15T13:10:38.214Z,1017.17
2023-02-15T13:11:38.219Z,1017.12
2023-02-15T13:12:38.190Z,1017.09
2023-02-15T13:13:38.182Z,1017.11
2023-02-15T13:14:38.173Z,1017.15
2023-02-15T13:15:38.144Z,1017.12
2023-02-15T13:16:38.188Z,1017.10
2023-02-15T13:17:38.100Z,1017.10
2023-02-15T13:18:38.170Z,1017.05
2023-02-15T13:19:38.061Z,1017.08
2023-02-15T13:20:38.009Z,1017.04
2023-02-15T13:21:38.001Z,1016.99
2023-02-15T13:22:37.993Z,1017.02
2023-02-15T13:23:38.006Z,1017.01
2023-02-15T13:24:37.957Z,1017.08
2023-02-15T13:25:37.947Z,1016.97
2023-02-15T13:26:37.902Z,1016.92
2023-02-15T13:27:37.905Z,1016.96
2023-02-15T13:28:37.869Z,1016.89
2023-02-15T13:29:37.874Z,1016.87
2023-02-15T13:30:37.831Z,1016.90
2023-02-15T13:31:37.959Z,1016.86
2023-02-15T13:32:37.812Z,1016.87
2023-02-15T13:33:37.871Z,1016.84
2023-02-15T13:34:37.770Z,1016.87
2023-02-15T13:35:37.749Z,1016.84
2023-02-15T13:36:37.751Z,1016.85
2023-02-15T13:37:37.733Z,1016.83
2023-02-15T13:38:37.712Z,1016.80
2023-02-15T13:39:37.705Z,1016.76
2023-02-15T13:40:37.678Z,1016.74
2023-02-15T13:41:37.661Z,1016.74
2023-02-15T13:42:37.638Z,1016.75
2023-02-15T13:43:37.623Z,1016.72
2023-02-15T13:44:37.601Z,1016.69
2023-02-15T13:45:37.669Z,1016.65
2023-02-15T13:46:37.571Z,1016.63
2023-02-15T13:47:37.557Z,1016.66
2023-02-15T13:48:47.148Z,1016.67
2023-02-15T13:49:37.532Z,1016.60
2023-02-15T13:50:37.520Z,1016.52
2023-02-15T13:51:37.486Z,1016.60
2023-02-15T13:52:37.467Z,1016.57
2023-02-15T13:53:37.487Z,1016.59
2023-02-15T13:54:37.433Z,1016.59
2023-02-15T13:55:37.439Z,1016.62
2023-02-15T13:56:37.397Z,1016.61
2023-02-15T13:57:37.382Z,1016.59
2023-02-15T13:58:37.376Z,1016.51
2023-02-15T13:59:37.336Z,1016.53
2023-02-15T14:00:37.329Z,1016.54
2023-02-15T14:01:37.407Z,1016.56
2023-02-15T14:02:37.281Z,1016.54
2023-02-15T14:03:37.373Z,1016.52
2023-02-15T14:04:37.348Z,1016.53
2023-02-15T14:05:37.245Z,1016.56
2023-02-15T14:06:37.221Z,1016.50
2023-02-15T14:07:37.216Z,1016.49
2023-02-15T14:08:37.196Z,1016.48
2023-02-15T14:09:37.193Z,1016.45
2023-02-15T14:10:37.161Z,1016.38
2023-02-15T14:11:37.145Z,1016.40
2023-02-15T14:12:37.118Z,1016.41
2023-02-15T14:13:37.092Z,1016.39
2023-02-15T14:14:37.063Z,1016.38
2023-02-15T14:15:37.083Z,1016.37
2023-02-15T14:16:37.089Z,1016.42
2023-02-15T14:17:37.027Z,1016.42
2023-02-15T14:18:36.993Z,1016.43
2023-02-15T14:19:36.979Z,1016.47
2023-02-15T14:20:36.961Z,1016.45
2023-02-15T14:21:36.945Z,1016.43
2023-02-15T14:22:36.930Z,1016.42
2023-02-15T14:23:36.914Z,1016.41
2023-02-15T14:24:36.889Z,1016.40
2023-02-15T14:25:36.878Z,1016.36
2023-02-15T14:26:36.874Z,1016.33
2023-02-15T14:27:36.854Z,1016.35
2023-02-15T14:28:36.837Z,1016.33
2023-02-15T14:29:36.826Z,1016.37
2023-02-15T14:30:36.939Z,1016.38
2023-02-15T14:31:37.158Z,1016.40
2023-02-15T14:32:36.776Z,1016.37
2023-02-15T14:33:37.127Z,1016.38
2023-02-15T14:34:36.717Z,1016.38
2023-02-15T14:35:36.722Z,1016.38
